createdAt,value
2018-12-18T00:01:54.260Z,102188.23
2018-12-18T00:04:22.497Z,102186.93
2018-12-18T00:06:51.096Z,102184.00
2018-12-18T00:09:19.276Z,102178.64
2018-12-18T00:11:47.508Z,102171.14
2018-12-18T00:14:15.682Z,102173.73
2018-12-18T00:16:43.856Z,102173.34
2018-12-18T00:19:12.084Z,102173.73
2018-12-18T00:21:40.256Z,102157.32
2018-12-18T00:24:08.475Z,102161.14
2018-12-18T00:26:36.700Z,102166.22
2018-12-18T00:29:04.920Z,102175.09
2018-12-18T00:31:35.548Z,102167.61
2018-12-18T00:34:03.852Z,102164.67
2018-12-18T00:36:32.031Z,102165.97
2018-12-18T00:39:00.216Z,102173.58
2018-12-18T00:41:28.439Z,102168.97
2018-12-18T00:43:56.664Z,102172.34
2018-12-18T00:46:24.891Z,102175.69
2018-12-18T00:48:53.120Z,102173.67
2018-12-18T00:51:21.328Z,102165.27
2018-12-18T00:53:49.546Z,102164.36
2018-12-18T00:56:17.764Z,102161.80
2018-12-18T00:58:45.976Z,102163.92
2018-12-18T01:01:14.202Z,102156.44
2018-12-18T01:03:42.405Z,102164.05
2018-12-18T01:06:10.636Z,102158.08
2018-12-18T01:08:38.818Z,102158.02
2018-12-18T01:11:07.061Z,102156.81
2018-12-18T01:13:35.268Z,102155.87
2018-12-18T01:16:03.436Z,102148.30
2018-12-18T01:18:31.668Z,102155.87
2018-12-18T01:20:59.925Z,102157.61
2018-12-18T01:23:28.124Z,102147.09
2018-12-18T01:25:56.305Z,102154.23
2018-12-18T01:28:24.528Z,102158.45
2018-12-18T01:30:52.708Z,102163.92
2018-12-18T01:33:20.926Z,102173.23
2018-12-18T01:35:49.251Z,102176.60
2018-12-18T01:38:17.455Z,102178.77
2018-12-18T01:40:45.700Z,102174.61
2018-12-18T01:43:13.871Z,102176.00
2018-12-18T01:45:42.108Z,102182.78
2018-12-18T01:48:10.293Z,102177.80
2018-12-18T01:50:38.517Z,102180.23
2018-12-18T01:53:06.720Z,102180.16
2018-12-18T01:55:34.972Z,102183.20
2018-12-18T01:58:03.149Z,102185.39
2018-12-18T02:00:31.377Z,102185.05
2018-12-18T02:02:59.548Z,102183.41
2018-12-18T02:05:27.796Z,102183.85
2018-12-18T02:07:55.977Z,102183.85
2018-12-18T02:10:24.189Z,102193.09
2018-12-18T02:12:52.476Z,102188.05
2018-12-18T02:15:20.682Z,102174.61
2018-12-18T02:17:48.858Z,102182.63
2018-12-18T02:20:17.073Z,102180.95
2018-12-18T02:22:45.251Z,102174.30
2018-12-18T02:25:13.516Z,102180.67
2018-12-18T02:27:41.732Z,102182.78
2018-12-18T02:30:10.179Z,102191.69
2018-12-18T02:32:38.449Z,102190.83
2018-12-18T02:35:06.784Z,102195.06
2018-12-18T02:37:34.966Z,102198.09
2018-12-18T02:40:03.381Z,102193.42
2018-12-18T02:42:31.584Z,102190.99
2018-12-18T02:44:59.888Z,102189.41
2018-12-18T02:47:28.120Z,102184.45
2018-12-18T02:49:56.292Z,102192.91
2018-12-18T02:52:24.507Z,102195.82
2018-12-18T02:54:52.759Z,102198.59
2018-12-18T02:57:21.008Z,102202.09
2018-12-18T02:59:49.244Z,102196.20
2018-12-18T03:02:17.788Z,102195.31
2018-12-18T03:04:46.099Z,102191.91
2018-12-18T03:07:14.276Z,102185.72
2018-12-18T03:09:42.617Z,102185.87
2018-12-18T03:12:10.800Z,102182.15
2018-12-18T03:14:39.018Z,102184.70
2018-12-18T03:17:07.206Z,102182.20
2018-12-18T03:19:35.422Z,102185.97
2018-12-18T03:22:03.684Z,102187.86
2018-12-18T03:24:31.913Z,102194.44
2018-12-18T03:27:00.164Z,102186.95
2018-12-18T03:29:28.346Z,102187.08
2018-12-18T03:32:00.763Z,102187.80
2018-12-18T03:34:28.937Z,102184.55
2018-12-18T03:36:57.169Z,102187.45
2018-12-18T03:39:25.381Z,102187.17
2018-12-18T03:41:53.717Z,102189.25
2018-12-18T03:44:21.884Z,102194.62
2018-12-18T03:46:50.405Z,102190.33
2018-12-18T03:49:18.609Z,102196.39
2018-12-18T03:51:46.796Z,102192.09
2018-12-18T03:54:15.113Z,102197.30
2018-12-18T03:56:43.347Z,102191.48
2018-12-18T03:59:11.560Z,102191.81
2018-12-18T04:01:39.750Z,102199.38
2018-12-18T04:04:07.988Z,102198.84
2018-12-18T04:06:36.208Z,102202.73
2018-12-18T04:09:07.102Z,102197.83
2018-12-18T04:11:37.976Z,102199.03
2018-12-18T04:14:06.188Z,102197.42
2018-12-18T04:16:34.430Z,102194.45
2018-12-18T04:19:02.619Z,102193.38
2018-12-18T04:21:30.824Z,102195.98
2018-12-18T04:23:59.039Z,102199.02
2018-12-18T04:26:27.284Z,102190.64
2018-12-18T04:28:55.445Z,102189.81
2018-12-18T04:31:23.662Z,102197.72
2018-12-18T04:33:51.863Z,102193.25
2018-12-18T04:36:20.062Z,102194.55
2018-12-18T04:38:48.356Z,102195.37
2018-12-18T04:41:16.548Z,102195.42
2018-12-18T04:43:44.784Z,102197.13
2018-12-18T04:46:13.000Z,102203.00
2018-12-18T04:48:41.220Z,102205.17
2018-12-18T04:51:09.433Z,102204.77
2018-12-18T04:53:37.622Z,102216.19
2018-12-18T04:56:06.040Z,102224.36
2018-12-18T04:58:34.332Z,102226.14
2018-12-18T05:01:02.638Z,102221.25
2018-12-18T05:03:30.823Z,102224.41
2018-12-18T05:05:59.055Z,102223.75
2018-12-18T05:08:27.220Z,102223.41
2018-12-18T05:10:55.448Z,102226.53
2018-12-18T05:13:23.625Z,102227.51
2018-12-18T05:15:51.849Z,102229.72
2018-12-18T05:18:20.028Z,102223.91
2018-12-18T05:20:48.267Z,102226.97
2018-12-18T05:23:16.487Z,102224.48
2018-12-18T05:25:44.669Z,102227.11
2018-12-18T05:28:12.848Z,102222.51
2018-12-18T05:30:41.088Z,102229.77
2018-12-18T05:33:09.312Z,102229.84
2018-12-18T05:35:37.532Z,102228.08
2018-12-18T05:38:05.720Z,102233.29
2018-12-18T05:40:33.888Z,102235.03
2018-12-18T05:43:02.164Z,102233.36
2018-12-18T05:45:30.332Z,102233.77
2018-12-18T05:47:58.548Z,102235.91
2018-12-18T05:50:26.773Z,102227.44
2018-12-18T05:52:54.929Z,102231.28
2018-12-18T05:55:23.152Z,102232.50
2018-12-18T05:57:51.320Z,102234.63
2018-12-18T06:00:19.513Z,102239.31
2018-12-18T06:02:47.872Z,102239.75
2018-12-18T06:05:16.073Z,102240.91
2018-12-18T06:07:44.241Z,102242.55
2018-12-18T06:10:12.464Z,102258.17
2018-12-18T06:12:40.634Z,102253.52
2018-12-18T06:15:08.812Z,102253.47
2018-12-18T06:17:37.049Z,102254.77
2018-12-18T06:20:05.564Z,102255.52
2018-12-18T06:22:33.808Z,102261.48
2018-12-18T06:25:02.000Z,102251.30
2018-12-18T06:27:30.224Z,102247.88
2018-12-18T06:29:58.456Z,102250.72
2018-12-18T06:32:26.684Z,102257.50
2018-12-18T06:34:54.897Z,102256.66
2018-12-18T06:37:23.061Z,102268.87
2018-12-18T06:39:51.291Z,102267.07
2018-12-18T06:42:19.580Z,102261.13
2018-12-18T06:44:47.805Z,102264.48
2018-12-18T06:47:16.022Z,102264.47
2018-12-18T06:49:44.217Z,102263.52
2018-12-18T06:52:12.429Z,102265.17
2018-12-18T06:54:40.680Z,102275.27
2018-12-18T06:57:08.862Z,102269.30
2018-12-18T06:59:37.035Z,102282.00
2018-12-18T07:02:05.377Z,102280.73
2018-12-18T07:04:33.679Z,102279.03
2018-12-18T07:07:01.880Z,102290.37
2018-12-18T07:09:30.124Z,102292.56
2018-12-18T07:11:58.304Z,102297.19
2018-12-18T07:14:26.551Z,102297.95
2018-12-18T07:16:54.733Z,102298.81
2018-12-18T07:19:22.949Z,102303.43
2018-12-18T07:21:51.159Z,102308.11
2018-12-18T07:24:19.492Z,102308.55
2018-12-18T07:26:47.668Z,102308.36
2018-12-18T07:29:15.913Z,102309.73
2018-12-18T07:31:44.132Z,102309.75
2018-12-18T07:34:12.426Z,102319.46
2018-12-18T07:36:40.632Z,102314.41
2018-12-18T07:39:09.243Z,102316.49
2018-12-18T07:41:37.439Z,102317.20
2018-12-18T07:44:05.692Z,102321.45
2018-12-18T07:46:33.908Z,102322.27
2018-12-18T07:49:02.080Z,102323.03
2018-12-18T07:51:30.289Z,102316.74
2018-12-18T07:53:58.469Z,102323.97
2018-12-18T07:56:26.696Z,102330.73
2018-12-18T07:58:54.971Z,102322.71
2018-12-18T08:01:23.181Z,102328.29
2018-12-18T08:03:51.387Z,102332.96
2018-12-18T08:06:19.560Z,102332.55
2018-12-18T08:08:47.786Z,102333.81
2018-12-18T08:11:15.987Z,102329.14
2018-12-18T08:13:44.200Z,102336.78
2018-12-18T08:16:12.476Z,102335.63
2018-12-18T08:18:40.656Z,102337.72
2018-12-18T08:21:08.920Z,102340.36
2018-12-18T08:23:37.144Z,102347.95
2018-12-18T08:26:05.415Z,102342.89
2018-12-18T08:28:33.589Z,102354.71
2018-12-18T08:31:01.806Z,102351.02
2018-12-18T08:33:30.068Z,102354.51
2018-12-18T08:35:58.263Z,102354.48
2018-12-18T08:38:26.444Z,102355.26
2018-12-18T08:40:54.712Z,102355.31
2018-12-18T08:43:22.920Z,102358.28
2018-12-18T08:45:51.084Z,102351.52
2018-12-18T08:48:19.305Z,102347.36
2018-12-18T08:50:47.478Z,102349.78
2018-12-18T08:53:15.676Z,102350.39
2018-12-18T08:55:44.011Z,102345.37
2018-12-18T08:58:12.192Z,102346.38
2018-12-18T09:00:40.454Z,102341.76
2018-12-18T09:03:08.612Z,102347.80
2018-12-18T09:05:42.982Z,102340.76
2018-12-18T09:08:07.149Z,102343.75
2018-12-18T09:10:39.777Z,102348.52
2018-12-18T09:13:05.683Z,102339.67
2018-12-18T09:15:39.161Z,102342.67
2018-12-18T09:18:07.339Z,102342.76
2018-12-18T09:20:35.512Z,102339.09
2018-12-18T09:23:03.733Z,102347.66
2018-12-18T09:25:32.048Z,102343.04
2018-12-18T09:28:00.268Z,102337.36
2018-12-18T09:30:28.476Z,102340.39
2018-12-18T09:32:56.682Z,102347.94
2018-12-18T09:35:24.864Z,102341.52
2018-12-18T09:37:58.305Z,102347.84
2018-12-18T09:40:28.470Z,102346.07
2018-12-18T09:43:01.992Z,102345.95
2018-12-18T09:45:30.192Z,102340.61
2018-12-18T09:47:58.364Z,102351.14
2018-12-18T09:50:26.576Z,102343.41
2018-12-18T09:52:54.748Z,102341.84
2018-12-18T09:55:23.056Z,102341.87
2018-12-18T09:57:56.512Z,102336.81
2018-12-18T10:00:24.712Z,102331.44
2018-12-18T10:02:52.875Z,102335.22
2018-12-18T10:05:21.092Z,102340.17
2018-12-18T10:07:49.348Z,102333.91
2018-12-18T10:10:17.592Z,102335.67
2018-12-18T10:12:51.113Z,102337.85
2018-12-18T10:15:19.319Z,102336.11
2018-12-18T10:17:47.490Z,102328.56
2018-12-18T10:20:15.701Z,102322.73
2018-12-18T10:22:43.904Z,102323.23
2018-12-18T10:25:12.125Z,102319.92
2018-12-18T10:27:40.344Z,102324.52
2018-12-18T10:30:08.828Z,102313.58
2018-12-18T10:32:37.099Z,102314.02
2018-12-18T10:35:05.848Z,102318.23
2018-12-18T10:37:34.060Z,102301.73
2018-12-18T10:40:02.280Z,102310.17
2018-12-18T10:42:30.483Z,102305.61
2018-12-18T10:44:58.652Z,102306.04
2018-12-18T10:47:26.860Z,102300.83
2018-12-18T10:49:55.059Z,102299.22
2018-12-18T10:52:23.229Z,102297.56
2018-12-18T10:54:52.492Z,102295.09
2018-12-18T10:57:20.814Z,102292.53
2018-12-18T10:59:49.056Z,102286.66
2018-12-18T11:02:17.232Z,102289.17
2018-12-18T11:04:45.435Z,102292.13
2018-12-18T11:07:13.606Z,102284.95
2018-12-18T11:09:41.821Z,102281.12
2018-12-18T11:12:10.043Z,102282.45
2018-12-18T11:14:38.216Z,102282.05
2018-12-18T11:17:06.496Z,102277.52
2018-12-18T11:19:34.699Z,102274.16
2018-12-18T11:22:02.875Z,102266.16
2018-12-18T11:24:31.101Z,102265.38
2018-12-18T11:26:59.364Z,102258.61
2018-12-18T11:29:27.564Z,102264.98
2018-12-18T11:31:55.780Z,102258.66
2018-12-18T11:34:23.991Z,102257.39
2018-12-18T11:36:52.192Z,102257.39
2018-12-18T11:39:20.401Z,102247.28
2018-12-18T11:41:48.613Z,102245.10
2018-12-18T11:44:16.771Z,102249.77
2018-12-18T11:46:45.018Z,102248.12
2018-12-18T11:49:13.182Z,102241.36
2018-12-18T11:51:41.401Z,102248.13
2018-12-18T11:54:09.660Z,102247.70
2018-12-18T11:56:37.875Z,102257.39
2018-12-18T11:59:06.049Z,102251.02
2018-12-18T12:01:34.214Z,102243.05
2018-12-18T12:04:02.433Z,102240.09
2018-12-18T12:06:30.716Z,102231.20
2018-12-18T12:08:58.937Z,102237.06
2018-12-18T12:11:27.117Z,102238.30
2018-12-18T12:13:55.284Z,102242.15
2018-12-18T12:16:23.497Z,102243.00
2018-12-18T12:18:51.699Z,102234.17
2018-12-18T12:21:19.980Z,102233.28
2018-12-18T12:23:48.187Z,102241.41
2018-12-18T12:26:21.579Z,102225.78
2018-12-18T12:28:49.791Z,102229.59
2018-12-18T12:31:18.012Z,102227.48
2018-12-18T12:33:46.184Z,102231.75
2018-12-18T12:36:14.385Z,102232.60
2018-12-18T12:38:42.549Z,102231.77
2018-12-18T12:41:10.775Z,102225.43
2018-12-18T12:43:38.944Z,102219.50
2018-12-18T12:46:07.191Z,102222.47
2018-12-18T12:48:40.708Z,102219.03
2018-12-18T12:51:08.925Z,102226.59
2018-12-18T12:53:37.092Z,102226.60
2018-12-18T12:56:05.303Z,102229.58
2018-12-18T12:58:33.468Z,102221.56
2018-12-18T13:01:01.672Z,102220.28
2018-12-18T13:03:29.844Z,102217.31
2018-12-18T13:05:58.060Z,102211.82
2018-12-18T13:08:26.227Z,102195.72
2018-12-18T13:10:54.437Z,102197.43
2018-12-18T13:13:22.645Z,102196.59
2018-12-18T13:15:50.840Z,102197.45
2018-12-18T13:18:19.041Z,102200.86
2018-12-18T13:20:47.361Z,102200.02
2018-12-18T13:23:15.531Z,102200.45
2018-12-18T13:25:43.733Z,102193.25
2018-12-18T13:28:11.910Z,102189.87
2018-12-18T13:30:40.124Z,102193.70
2018-12-18T13:33:08.340Z,102191.61
2018-12-18T13:35:36.527Z,102182.31
2018-12-18T13:38:05.095Z,102180.64
2018-12-18T13:40:33.308Z,102175.15
2018-12-18T13:43:01.530Z,102176.42
2018-12-18T13:45:29.736Z,102177.67
2018-12-18T13:47:57.909Z,102182.30
2018-12-18T13:50:26.111Z,102186.14
2018-12-18T13:52:54.361Z,102182.78
2018-12-18T13:55:22.700Z,102174.33
2018-12-18T13:57:50.952Z,102177.31
2018-12-18T14:00:19.170Z,102179.81
2018-12-18T14:02:47.339Z,102188.27
2018-12-18T14:05:15.513Z,102193.28
2018-12-18T14:07:43.728Z,102189.93
2018-12-18T14:10:12.032Z,102164.94
2018-12-18T14:12:40.245Z,102169.56
2018-12-18T14:15:08.836Z,102163.62
2018-12-18T14:17:37.044Z,102154.30
2018-12-18T14:20:05.880Z,102156.36
2018-12-18T14:22:34.053Z,102157.11
2018-12-18T14:25:02.216Z,102157.92
2018-12-18T14:27:30.457Z,102153.67
2018-12-18T14:29:58.655Z,102158.34
2018-12-18T14:32:26.832Z,102160.44
2018-12-18T14:34:55.140Z,102162.56
2018-12-18T14:37:23.352Z,102156.19
2018-12-18T14:39:51.557Z,102164.66
2018-12-18T14:42:19.750Z,102158.28
2018-12-18T14:44:47.960Z,102159.13
2018-12-18T14:47:16.164Z,102160.80
2018-12-18T14:49:44.376Z,102161.61
2018-12-18T14:52:12.584Z,102157.34
2018-12-18T14:54:40.849Z,102168.35
2018-12-18T14:57:09.067Z,102165.77
2018-12-18T14:59:37.489Z,102148.43
2018-12-18T15:02:05.652Z,102150.52
2018-12-18T15:04:33.896Z,102142.91
2018-12-18T15:07:03.033Z,102147.59
2018-12-18T15:09:31.508Z,102138.66
2018-12-18T15:11:59.681Z,102132.69
2018-12-18T15:14:27.892Z,102133.53
2018-12-18T15:16:56.067Z,102137.33
2018-12-18T15:19:24.361Z,102135.63
2018-12-18T15:21:52.583Z,102135.23
2018-12-18T15:24:20.748Z,102133.53
2018-12-18T15:26:49.008Z,102134.80
2018-12-18T15:29:17.185Z,102131.40
2018-12-18T15:31:45.344Z,102134.36
2018-12-18T15:34:13.557Z,102132.64
2018-12-18T15:36:41.783Z,102130.94
2018-12-18T15:39:10.006Z,102126.75
2018-12-18T15:41:38.181Z,102121.23
2018-12-18T15:44:06.496Z,102124.16
2018-12-18T15:46:34.731Z,102124.98
2018-12-18T15:49:02.900Z,102135.16
2018-12-18T15:51:31.068Z,102138.11
2018-12-18T15:53:59.361Z,102147.04
2018-12-18T15:56:27.556Z,102145.77
2018-12-18T15:58:55.769Z,102147.91
2018-12-18T16:01:24.343Z,102151.25
2018-12-18T16:03:52.545Z,102154.22
2018-12-18T16:06:20.760Z,102152.08
2018-12-18T16:08:48.940Z,102147.89
2018-12-18T16:11:17.156Z,102149.17
2018-12-18T16:13:45.424Z,102147.08
2018-12-18T16:16:13.796Z,102144.56
2018-12-18T16:18:42.000Z,102136.47
2018-12-18T16:21:10.181Z,102139.44
2018-12-18T16:23:38.390Z,102148.28
2018-12-18T16:26:06.609Z,102147.88
2018-12-18T16:28:34.771Z,102133.53
2018-12-18T16:31:02.992Z,102133.14
2018-12-18T16:33:31.196Z,102133.58
2018-12-18T16:35:59.454Z,102133.58
2018-12-18T16:38:27.620Z,102123.44
2018-12-18T16:40:55.792Z,102126.76
2018-12-18T16:43:24.014Z,102121.74
2018-12-18T16:45:52.195Z,102123.40
2018-12-18T16:48:20.404Z,102117.48
2018-12-18T16:50:48.694Z,102111.14
2018-12-18T16:53:16.927Z,102114.48
2018-12-18T16:55:45.161Z,102115.36
2018-12-18T16:58:13.337Z,102118.72
2018-12-18T17:00:41.548Z,102103.05
2018-12-18T17:03:09.716Z,102109.38
2018-12-18T17:05:37.937Z,102097.51
2018-12-18T17:08:06.103Z,102100.50
2018-12-18T17:10:34.683Z,102098.81
2018-12-18T17:13:02.861Z,102086.60
2018-12-18T17:15:31.116Z,102086.16
2018-12-18T17:17:59.358Z,102087.84
2018-12-18T17:20:27.620Z,102085.71
2018-12-18T17:22:55.795Z,102085.28
2018-12-18T17:25:23.964Z,102086.12
2018-12-18T17:27:52.180Z,102081.03
2018-12-18T17:30:20.353Z,102073.87
2018-12-18T17:32:48.561Z,102073.47
2018-12-18T17:35:16.725Z,102081.05
2018-12-18T17:37:44.984Z,102077.23
2018-12-18T17:40:13.153Z,102083.55
2018-12-18T17:42:41.362Z,102073.00
2018-12-18T17:45:09.532Z,102074.22
2018-12-18T17:47:37.748Z,102072.41
2018-12-18T17:50:07.144Z,102076.16
2018-12-18T17:52:35.356Z,102075.19
2018-12-18T17:55:03.753Z,102088.21
2018-12-18T17:57:31.923Z,102086.06
2018-12-18T18:00:00.142Z,102087.34
2018-12-18T18:02:28.556Z,102098.31
2018-12-18T18:04:56.749Z,102089.78
2018-12-18T18:07:24.951Z,102092.31
2018-12-18T18:09:53.128Z,102085.55
2018-12-18T18:12:21.336Z,102074.97
2018-12-18T18:14:49.507Z,102069.89
2018-12-18T18:17:17.708Z,102069.50
2018-12-18T18:19:46.128Z,102057.67
2018-12-18T18:22:14.328Z,102067.41
2018-12-18T18:24:42.501Z,102061.02
2018-12-18T18:27:10.792Z,102066.05
2018-12-18T18:29:38.965Z,102060.17
2018-12-18T18:32:07.178Z,102055.91
2018-12-18T18:34:35.392Z,102058.92
2018-12-18T18:37:03.612Z,102055.91
2018-12-18T18:39:31.788Z,102048.34
2018-12-18T18:41:59.952Z,102052.98
2018-12-18T18:44:28.156Z,102041.56
2018-12-18T18:46:56.331Z,102047.53
2018-12-18T18:49:24.552Z,102047.55
2018-12-18T18:51:52.716Z,102048.02
2018-12-18T18:54:20.887Z,102043.80
2018-12-18T18:56:49.113Z,102042.54
2018-12-18T18:59:17.272Z,102034.09
2018-12-18T19:01:45.501Z,102037.91
2018-12-18T19:04:13.717Z,102030.70
2018-12-18T19:06:42.130Z,102022.27
2018-12-18T19:09:10.342Z,102014.65
2018-12-18T19:11:38.553Z,102013.30
2018-12-18T19:14:06.749Z,102001.05
2018-12-18T19:16:34.955Z,102000.67
2018-12-18T19:19:03.327Z,101996.80
2018-12-18T19:21:31.496Z,101987.11
2018-12-18T19:23:59.661Z,101993.03
2018-12-18T19:26:27.889Z,101993.91
2018-12-18T19:28:56.062Z,101997.28
2018-12-18T19:31:24.245Z,101997.70
2018-12-18T19:33:52.448Z,101989.27
2018-12-18T19:36:20.637Z,101981.69
2018-12-18T19:38:48.836Z,101976.99
2018-12-18T19:41:17.029Z,101980.43
2018-12-18T19:43:45.960Z,101980.39
2018-12-18T19:46:14.277Z,101970.64
2018-12-18T19:48:42.656Z,101959.73
2018-12-18T19:51:10.864Z,101968.55
2018-12-18T19:53:39.116Z,101964.22
2018-12-18T19:56:07.333Z,101965.39
2018-12-18T19:58:35.505Z,101952.11
2018-12-18T20:01:03.824Z,101944.84
2018-12-18T20:03:31.996Z,101941.79
2018-12-18T20:06:00.200Z,101940.02
2018-12-18T20:08:28.360Z,101947.08
2018-12-18T20:10:56.592Z,101940.27
2018-12-18T20:13:24.764Z,101940.19
2018-12-18T20:15:52.986Z,101933.73
2018-12-18T20:18:21.196Z,101926.51
2018-12-18T20:20:49.448Z,101930.58
2018-12-18T20:23:17.668Z,101935.20
2018-12-18T20:25:46.136Z,101931.33
2018-12-18T20:28:14.315Z,101922.42
2018-12-18T20:30:42.532Z,101922.34
2018-12-18T20:33:10.700Z,101921.52
2018-12-18T20:35:38.898Z,101923.50
2018-12-18T20:38:07.120Z,101919.34
2018-12-18T20:40:35.297Z,101913.35
2018-12-18T20:43:03.564Z,101906.14
2018-12-18T20:45:31.776Z,101902.79
2018-12-18T20:48:00.852Z,101900.59
2018-12-18T20:50:29.077Z,101900.55
2018-12-18T20:52:57.296Z,101907.25
2018-12-18T20:55:25.455Z,101900.89
2018-12-18T20:57:53.629Z,101905.55
2018-12-18T21:00:21.844Z,101900.55
2018-12-18T21:02:50.028Z,101901.35
2018-12-18T21:05:18.336Z,101889.92
2018-12-18T21:07:47.152Z,101886.13
2018-12-18T21:10:15.355Z,101889.88
2018-12-18T21:12:43.669Z,101891.97
2018-12-18T21:15:11.929Z,101886.94
2018-12-18T21:17:40.106Z,101894.06
2018-12-18T21:20:08.925Z,101887.70
2018-12-18T21:22:37.097Z,101872.02
2018-12-18T21:25:06.132Z,101878.81
2018-12-18T21:27:34.384Z,101864.08
2018-12-18T21:30:02.709Z,101871.63
2018-12-18T21:32:31.000Z,101856.48
2018-12-18T21:34:59.220Z,101860.63
2018-12-18T21:37:27.412Z,101862.75
2018-12-18T21:39:55.592Z,101862.31
2018-12-18T21:42:23.808Z,101870.67
2018-12-18T21:44:52.220Z,101866.03
2018-12-18T21:47:20.400Z,101863.09
2018-12-18T21:49:48.669Z,101853.81
2018-12-18T21:52:16.980Z,101850.39
2018-12-18T21:54:45.197Z,101861.31
2018-12-18T21:57:13.400Z,101856.22
2018-12-18T21:59:41.604Z,101864.63
2018-12-18T22:02:09.804Z,101858.22
2018-12-18T22:04:38.031Z,101858.56
2018-12-18T22:07:05.968Z,101847.16
2018-12-18T22:09:34.141Z,101851.79
2018-12-18T22:12:02.348Z,101852.16
2018-12-18T22:14:30.564Z,101847.91
2018-12-18T22:16:58.776Z,101845.34
2018-12-18T22:19:26.983Z,101842.33
2018-12-18T22:21:55.208Z,101839.78
2018-12-18T22:24:23.426Z,101849.41
2018-12-18T22:26:51.599Z,101851.09
2018-12-18T22:29:19.768Z,101851.52
2018-12-18T22:31:47.976Z,101848.95
2018-12-18T22:34:16.152Z,101835.90
2018-12-18T22:36:44.357Z,101841.33
2018-12-18T22:39:12.521Z,101840.89
2018-12-18T22:41:40.729Z,101826.07
2018-12-18T22:44:09.027Z,101825.17
2018-12-18T22:46:37.231Z,101822.64
2018-12-18T22:49:05.433Z,101820.95
2018-12-18T22:51:33.698Z,101815.91
2018-12-18T22:54:01.872Z,101801.98
2018-12-18T22:56:30.056Z,101805.38
2018-12-18T22:58:58.272Z,101800.33
2018-12-18T23:01:31.781Z,101793.53
2018-12-18T23:03:59.997Z,101788.98
2018-12-18T23:06:28.201Z,101793.53
2018-12-18T23:08:56.400Z,101780.09
2018-12-18T23:11:24.572Z,101781.00
2018-12-18T23:13:52.792Z,101778.45
2018-12-18T23:16:20.972Z,101770.47
2018-12-18T23:18:49.146Z,101766.25
2018-12-18T23:21:17.371Z,101760.33
2018-12-18T23:23:45.549Z,101755.22
2018-12-18T23:26:13.716Z,101749.30
2018-12-18T23:28:41.919Z,101742.90
2018-12-18T23:31:10.237Z,101738.31
2018-12-18T23:33:38.408Z,101735.41
2018-12-18T23:36:06.620Z,101730.72
2018-12-18T23:38:34.836Z,101724.72
2018-12-18T23:41:03.198Z,101718.06
2018-12-18T23:43:31.425Z,101713.31
2018-12-18T23:45:59.604Z,101696.82
2018-12-18T23:48:27.788Z,101700.97
2018-12-18T23:50:56.000Z,101697.96
2018-12-18T23:53:24.223Z,101687.34
2018-12-18T23:55:52.388Z,101672.62
2018-12-18T23:58:20.717Z,101677.64
